Time;durP1;ratioP1;P1;durP2;ratioP2;P2;SDS_P1;SDS_P2;PMS_P1;PMS_P2;Temp;Humidity;BMP_temperature;BMP_pressure;BME280_temperature;BME280_humidity;BME280_pressure;Samples;Min_cycle;Max_cycle;Signal;HPM_P1;HPM_P2
2023/03/14 00:00:55;;;;;;;8.07;1.23;;;;;;;18.31;46.42;98883.94;4957749;28;20066;-62
2023/03/14 00:03:21;;;;;;;3.50;1.13;;;;;;;18.24;45.89;98886.72;4974410;28;20592;-61
2023/03/14 00:05:46;;;;;;;7.10;1.20;;;;;;;18.21;45.89;98886.34;4957317;28;20061;-61
2023/03/14 00:08:11;;;;;;;1.42;0.50;;;;;;;18.00;46.56;98869.50;4958216;28;20507;-64
2023/03/14 00:10:37;;;;;;;3.50;0.50;;;;;;;18.10;46.81;98887.91;4973480;28;20446;-61
2023/03/14 00:13:03;;;;;;;5.03;0.70;;;;;;;18.09;46.04;98901.72;4973047;28;20066;-61
2023/03/14 00:15:28;;;;;;;3.42;0.40;;;;;;;18.00;46.06;98896.59;4973484;28;20517;-61
2023/03/14 00:17:54;;;;;;;0.80;0.30;;;;;;;18.04;45.77;98910.50;4956854;28;20038;-61
2023/03/14 00:20:19;;;;;;;4.93;0.40;;;;;;;17.98;46.55;98912.22;4957037;28;20502;-61
2023/03/14 00:22:45;;;;;;;4.20;0.63;;;;;;;17.93;46.00;98920.19;4973324;28;20033;-61
2023/03/14 00:25:11;;;;;;;1.65;0.40;;;;;;;17.88;46.59;98927.34;4974590;28;20030;-62
2023/03/14 00:27:37;;;;;;;0.80;0.22;;;;;;;17.80;46.00;98924.91;4973447;28;20027;-61
2023/03/14 00:30:04;;;;;;;2.40;0.40;;;;;;;17.73;46.28;98919.53;4974421;28;20042;-61
2023/03/14 00:32:29;;;;;;;1.13;0.38;;;;;;;17.67;45.93;98920.41;4941136;28;20031;-61
2023/03/14 00:34:55;;;;;;;1.20;0.45;;;;;;;17.62;45.48;98922.13;4957113;28;20165;-62
2023/03/14 00:37:20;;;;;;;1.55;0.68;;;;;;;17.57;46.11;98925.50;4973182;28;20398;-62
2023/03/14 00:39:45;;;;;;;5.50;0.60;;;;;;;17.55;46.29;98921.38;4973735;28;20030;-61
2023/03/14 00:42:11;;;;;;;1.30;0.45;;;;;;;17.51;47.00;98917.41;4974146;28;20042;-61
2023/03/14 00:44:36;;;;;;;0.52;0.50;;;;;;;17.50;45.94;98919.31;4972369;28;20035;-61
2023/03/14 00:47:02;;;;;;;7.93;1.20;;;;;;;17.46;45.75;98920.78;4972625;28;20031;-61
2023/03/14 00:49:27;;;;;;;0.90;0.30;;;;;;;17.46;46.46;98926.19;4972745;28;20125;-61
2023/03/14 00:51:53;;;;;;;2.53;0.40;;;;;;;17.42;46.32;98923.09;4973449;28;20117;-61
2023/03/14 00:54:19;;;;;;;3.05;0.93;;;;;;;17.42;46.18;98916.84;4956458;28;20030;-61
2023/03/14 00:56:44;;;;;;;2.75;0.30;;;;;;;17.42;46.15;98919.56;4956425;28;20031;-61
2023/03/14 00:59:10;;;;;;;2.35;0.40;;;;;;;17.43;46.07;98919.34;4959288;28;20101;-61
2023/03/14 01:01:35;;;;;;;0.75;0.43;;;;;;;17.38;46.00;98921.06;4976566;28;20407;-62
2023/03/14 01:04:01;;;;;;;1.02;0.57;;;;;;;17.50;46.54;98929.31;4977078;28;20031;-61
2023/03/14 01:06:28;;;;;;;4.13;0.90;;;;;;;17.53;45.91;98913.44;4976459;28;20035;-62
2023/03/14 01:08:54;;;;;;;6.20;0.63;;;;;;;17.56;46.93;98902.19;4960187;28;20058;-61
2023/03/14 01:11:22;;;;;;;2.38;0.55;;;;;;;17.60;46.94;98914.25;4960176;28;20525;-61
2023/03/14 01:13:48;;;;;;;3.03;0.85;;;;;;;17.64;47.19;98910.06;4960069;28;20039;-62
2023/03/14 01:16:14;;;;;;;2.58;0.80;;;;;;;17.65;46.11;98902.75;4959937;28;20038;-61
2023/03/14 01:18:41;;;;;;;2.83;0.50;;;;;;;17.66;47.62;98899.00;4976601;28;20101;-62
2023/03/14 01:21:24;;;;;;;5.30;0.73;;;;;;;17.64;47.24;98896.53;4976413;28;20035;-61
2023/03/14 01:23:50;;;;;;;;;;;;;;;17.65;47.09;98887.31;4976631;28;20034;-61
2023/03/14 01:26:18;;;;;;;0.70;0.52;;;;;;;17.65;46.27;98870.25;4992464;28;20275;-62
2023/03/14 01:28:44;;;;;;;3.55;0.63;;;;;;;17.67;47.11;98863.56;4976031;28;20030;-62
2023/03/14 01:31:10;;;;;;;1.35;0.50;;;;;;;17.69;47.53;98875.00;4959950;28;20031;-61
2023/03/14 01:33:36;;;;;;;2.63;0.70;;;;;;;17.71;46.71;98877.47;4976551;28;20030;-62
2023/03/14 01:36:02;;;;;;;5.90;0.70;;;;;;;17.74;46.62;98871.63;4975723;28;20031;-62
2023/03/14 01:38:32;;;;;;;6.03;1.33;;;;;;;17.76;47.69;98873.06;4975919;28;20610;-61
2023/03/14 01:40:57;;;;;;;3.22;0.70;;;;;;;17.77;46.28;98861.19;4975856;28;20035;-62
2023/03/14 01:43:26;;;;;;;5.10;0.85;;;;;;;17.74;47.29;98856.22;4959716;28;20037;-61
2023/03/14 01:46:19;;;;;;;5.03;0.70;;;;;;;17.75;46.59;98857.03;4976099;28;20031;-61
2023/03/14 01:48:56;;;;;;;6.63;1.13;;;;;;;17.72;47.26;98861.03;4975836;28;20061;-61
2023/03/14 01:51:25;;;;;;;4.03;1.10;;;;;;;17.73;46.00;98859.13;4959802;28;20038;-62
2023/03/14 01:53:52;;;;;;;2.17;0.43;;;;;;;17.55;46.46;98835.56;4959581;28;20035;-62
2023/03/14 01:56:18;;;;;;;5.10;1.48;;;;;;;17.64;46.60;98849.66;4975514;28;20059;-62
2023/03/14 01:58:47;;;;;;;4.13;0.40;;;;;;;17.64;46.44;98845.06;4975569;28;20031;-61
2023/03/14 02:01:15;;;;;;;2.65;0.70;;;;;;;17.68;46.91;98840.84;4975957;28;20085;-61
2023/03/14 02:03:48;;;;;;;3.92;0.77;;;;;;;17.68;47.21;98835.44;4976053;28;20106;-62
2023/03/14 02:06:14;;;;;;;4.20;0.77;;;;;;;17.68;47.11;98846.28;4975432;28;20062;-62
2023/03/14 02:08:40;;;;;;;7.35;1.25;;;;;;;17.66;46.33;98826.72;4975636;28;20034;-62
2023/03/14 02:11:07;;;;;;;4.22;0.65;;;;;;;17.64;47.04;98828.00;4959700;28;20042;-62
2023/03/14 02:13:32;;;;;;;3.80;0.80;;;;;;;17.64;45.80;98828.81;4959365;28;20034;-61
2023/03/14 02:15:58;;;;;;;1.95;0.50;;;;;;;17.64;46.45;98823.41;4959470;28;20034;-61
2023/03/14 02:18:23;;;;;;;5.97;0.60;;;;;;;17.65;47.46;98819.63;4975770;28;20413;-61
2023/03/14 02:21:00;;;;;;;7.40;1.08;;;;;;;17.60;46.35;98816.78;4959579;28;20451;-61
2023/03/14 02:23:32;;;;;;;3.75;1.38;;;;;;;17.62;46.51;98825.50;4959533;28;20039;-62
2023/03/14 02:26:03;;;;;;;6.03;0.98;;;;;;;17.66;46.47;98825.88;4976634;28;20035;-61
2023/03/14 02:28:28;;;;;;;7.85;1.05;;;;;;;17.65;46.34;98830.47;4959326;28;20035;-61
2023/03/14 02:30:54;;;;;;;4.32;1.08;;;;;;;17.68;46.71;98824.59;4975989;28;20038;-61
2023/03/14 02:33:20;;;;;;;8.60;3.42;;;;;;;17.70;46.44;98827.09;4975421;28;20030;-61
2023/03/14 02:35:50;;;;;;;8.45;0.80;;;;;;;17.63;46.35;98816.31;4975446;28;20039;-61
2023/03/14 02:38:35;;;;;;;7.28;0.88;;;;;;;17.71;46.52;98824.16;4958937;28;20027;-61
2023/03/14 02:41:01;;;;;;;5.40;0.63;;;;;;;17.70;46.81;98835.22;4958930;28;20038;-61
2023/03/14 02:43:26;;;;;;;0.73;0.38;;;;;;;17.63;46.49;98821.75;4958673;28;20027;-60
2023/03/14 02:45:53;;;;;;;6.05;0.70;;;;;;;17.57;47.32;98825.34;4975086;28;20105;-60
2023/03/14 02:48:21;;;;;;;5.55;0.55;;;;;;;17.51;46.59;98834.31;4974804;28;20050;-60
2023/03/14 02:50:48;;;;;;;4.05;1.10;;;;;;;17.49;47.13;98831.00;4958008;28;20121;-61
2023/03/14 02:53:17;;;;;;;6.25;1.00;;;;;;;17.48;47.51;98834.75;4975416;28;20035;-61
2023/03/14 02:55:48;;;;;;;10.98;1.10;;;;;;;17.41;47.89;98823.19;4958792;28;20086;-61
2023/03/14 02:58:13;;;;;;;7.47;1.08;;;;;;;17.50;47.01;98843.50;4974402;28;20031;-61
2023/03/14 03:00:39;;;;;;;2.88;1.08;;;;;;;17.51;47.65;98845.16;4958798;28;20030;-60
2023/03/14 03:03:05;;;;;;;5.78;0.95;;;;;;;17.48;47.01;98845.59;4974415;28;20058;-61
2023/03/14 03:05:31;;;;;;;6.45;1.05;;;;;;;17.40;47.26;98833.16;4975455;28;20046;-60
2023/03/14 03:07:57;;;;;;;8.40;1.50;;;;;;;17.42;47.92;98841.06;4974247;28;20031;-61
2023/03/14 03:10:22;;;;;;;2.42;0.60;;;;;;;17.30;47.26;98829.31;4974487;28;20035;-61
2023/03/14 03:12:48;;;;;;;3.20;1.10;;;;;;;17.24;47.67;98817.50;4958635;28;20030;-61
2023/03/14 03:15:13;;;;;;;3.22;0.50;;;;;;;17.30;47.42;98834.72;4974270;28;20037;-61
2023/03/14 03:17:39;;;;;;;1.70;0.50;;;;;;;17.21;48.01;98834.16;4974008;28;20035;-63
2023/03/14 03:20:05;;;;;;;4.90;0.80;;;;;;;17.09;48.40;98829.69;4941777;28;20034;-66
2023/03/14 03:22:30;;;;;;;2.92;1.75;;;;;;;16.91;48.06;98811.53;4973443;28;20031;-65
2023/03/14 03:24:56;;;;;;;4.13;0.75;;;;;;;16.83;48.19;98803.69;4958109;28;20045;-64
2023/03/14 03:27:21;;;;;;;4.93;1.15;;;;;;;16.82;48.86;98802.84;4957661;28;20034;-64
2023/03/14 03:29:47;;;;;;;2.58;0.70;;;;;;;16.68;48.15;98798.56;4973738;28;20038;-67
2023/03/14 03:32:12;;;;;;;4.38;0.65;;;;;;;16.61;49.47;98791.56;4974823;28;20105;-64
2023/03/14 03:34:38;;;;;;;4.07;0.90;;;;;;;16.50;48.36;98776.81;4973844;28;20062;-64
2023/03/14 03:37:03;;;;;;;2.25;0.30;;;;;;;16.52;48.30;98795.53;4974759;28;20034;-64
2023/03/14 03:39:29;;;;;;;4.20;0.77;;;;;;;16.51;48.39;98802.81;4974043;28;20035;-65
2023/03/14 03:41:54;;;;;;;3.92;0.60;;;;;;;16.37;49.07;98789.56;4973494;28;20045;-65
2023/03/14 03:44:19;;;;;;;4.00;0.80;;;;;;;16.47;49.89;98806.97;4974470;28;20066;-65
2023/03/14 03:46:45;;;;;;;1.25;0.40;;;;;;;16.42;49.27;98795.97;4974670;28;20035;-66
2023/03/14 03:49:10;;;;;;;5.25;0.47;;;;;;;16.31;49.46;98773.19;4957331;28;20051;-64
2023/03/14 03:51:36;;;;;;;6.07;0.28;;;;;;;16.36;48.72;98779.81;4974011;28;20419;-63
2023/03/14 03:54:01;;;;;;;0.75;0.40;;;;;;;16.42;50.17;98789.75;4973629;28;20035;-65
2023/03/14 03:56:26;;;;;;;1.98;0.90;;;;;;;16.38;49.36;98796.66;4973459;28;20035;-63
2023/03/14 03:58:52;;;;;;;1.83;0.45;;;;;;;16.37;49.18;98789.56;4973699;28;20451;-64
2023/03/14 04:01:17;;;;;;;1.55;0.20;;;;;;;16.35;49.52;98788.97;4973582;28;20569;-65
2023/03/14 04:03:43;;;;;;;3.85;0.30;;;;;;;16.26;50.13;98785.69;4975577;28;20506;-65
2023/03/14 04:06:10;;;;;;;0.70;0.43;;;;;;;16.31;50.65;98775.06;4973009;28;20041;-64
2023/03/14 04:08:36;;;;;;;2.55;0.77;;;;;;;16.19;49.89;98760.59;4951140;28;20534;-65
2023/03/14 04:11:02;;;;;;;4.93;1.17;;;;;;;16.23;49.71;98778.84;4973076;28;20037;-64
2023/03/14 04:13:28;;;;;;;2.53;0.70;;;;;;;16.15;50.66;98770.16;4956991;28;20390;-63
2023/03/14 04:15:54;;;;;;;6.35;0.73;;;;;;;16.22;51.03;98789.84;4973508;28;20019;-63
2023/03/14 04:18:20;;;;;;;4.78;0.90;;;;;;;16.20;50.91;98794.66;4956990;28;20117;-62
2023/03/14 04:20:46;;;;;;;3.85;1.02;;;;;;;16.24;50.45;98785.91;4972995;28;20557;-62
2023/03/14 04:23:11;;;;;;;4.35;0.50;;;;;;;16.29;51.23;98783.38;4973059;28;20043;-63
2023/03/14 04:25:37;;;;;;;3.28;0.70;;;;;;;16.33;49.81;98786.50;4956918;28;20047;-62
2023/03/14 04:28:03;;;;;;;3.97;0.43;;;;;;;16.30;50.61;98776.13;4957083;28;20031;-64
2023/03/14 04:30:29;;;;;;;2.67;0.55;;;;;;;16.20;50.86;98754.97;4974364;28;20030;-62
2023/03/14 04:32:54;;;;;;;4.45;0.50;;;;;;;16.26;51.19;98780.28;4955857;28;20035;-62
2023/03/14 04:35:20;;;;;;;6.70;1.25;;;;;;;16.22;50.38;98768.22;4974149;28;20038;-62
2023/03/14 04:37:48;;;;;;;1.88;0.40;;;;;;;16.23;50.24;98764.50;4974134;28;20529;-61
2023/03/14 04:40:14;;;;;;;5.57;0.43;;;;;;;16.21;50.97;98761.19;4941830;28;20464;-62
2023/03/14 04:42:40;;;;;;;1.35;0.30;;;;;;;16.22;50.62;98752.03;4973435;28;20019;-65
2023/03/14 04:45:06;;;;;;;1.67;0.75;;;;;;;16.25;51.52;98757.00;4972951;28;20031;-65
2023/03/14 04:47:32;;;;;;;0.28;0.25;;;;;;;16.20;50.91;98764.94;4956683;28;20054;-65
2023/03/14 04:49:57;;;;;;;0.93;0.40;;;;;;;16.22;50.64;98757.44;4956508;28;20454;-64
2023/03/14 04:52:23;;;;;;;2.05;0.28;;;;;;;16.18;50.82;98756.22;4957028;28;20085;-64
2023/03/14 04:54:48;;;;;;;1.83;0.10;;;;;;;16.11;51.25;98744.59;4973262;28;20023;-63
2023/03/14 04:57:14;;;;;;;1.55;0.28;;;;;;;16.01;50.21;98728.88;4956589;28;20039;-63
2023/03/14 04:59:39;;;;;;;0.45;0.20;;;;;;;16.07;50.92;98738.00;4972659;28;20042;-63
2023/03/14 05:02:04;;;;;;;1.52;0.25;;;;;;;16.02;50.95;98732.41;4972571;28;20046;-62
2023/03/14 05:04:32;;;;;;;0.65;0.30;;;;;;;16.02;50.59;98740.53;4972565;28;20034;-62
2023/03/14 05:06:58;;;;;;;0.43;0.10;;;;;;;15.99;52.02;98741.78;4973083;28;20027;-62
2023/03/14 05:09:23;;;;;;;0.25;0.20;;;;;;;15.95;50.83;98723.50;4972332;28;20049;-61
2023/03/14 05:11:49;;;;;;;4.78;0.30;;;;;;;16.02;52.15;98735.13;4956752;28;20431;-61
2023/03/14 05:14:14;;;;;;;0.55;0.17;;;;;;;16.04;51.45;98739.25;4973675;28;20038;-61
2023/03/14 05:16:40;;;;;;;1.50;0.30;;;;;;;16.09;50.77;98741.31;4973600;28;20039;-61
2023/03/14 05:19:05;;;;;;;1.55;0.13;;;;;;;16.11;51.71;98737.34;4972692;28;20045;-61
2023/03/14 05:21:30;;;;;;;0.20;0.15;;;;;;;16.11;50.98;98723.81;4973100;28;20110;-61
2023/03/14 05:23:56;;;;;;;2.30;0.40;;;;;;;16.23;50.72;98737.47;4956387;28;20043;-61
2023/03/14 05:26:21;;;;;;;0.38;0.20;;;;;;;16.25;51.61;98729.97;4973597;28;20031;-61
2023/03/14 05:28:46;;;;;;;0.57;0.32;;;;;;;16.27;50.77;98731.41;4973859;28;20498;-61
2023/03/14 05:31:12;;;;;;;0.10;0.10;;;;;;;16.29;50.83;98715.00;4956590;28;20027;-61
2023/03/14 05:33:37;;;;;;;1.55;0.63;;;;;;;16.28;50.72;98714.16;4972802;28;20034;-62
2023/03/14 05:36:03;;;;;;;0.10;0.10;;;;;;;16.33;51.67;98716.25;4972384;28;20522;-61
2023/03/14 05:38:29;;;;;;;0.10;0.10;;;;;;;16.34;51.14;98715.19;4955855;28;20089;-61
2023/03/14 05:40:54;;;;;;;0.45;0.30;;;;;;;16.37;51.80;98712.03;4973631;28;20533;-61
2023/03/14 05:43:19;;;;;;;0.80;0.10;;;;;;;16.37;50.73;98714.75;4972255;28;20037;-61
2023/03/14 05:45:45;;;;;;;1.45;0.30;;;;;;;16.37;52.22;98712.03;4959905;28;20101;-61
2023/03/14 05:48:10;;;;;;;0.70;0.20;;;;;;;16.36;51.84;98710.38;4943420;28;20051;-61
2023/03/14 05:50:36;;;;;;;0.30;0.15;;;;;;;16.29;51.02;98705.03;4976988;28;20038;-62
2023/03/14 05:53:01;;;;;;;3.67;0.30;;;;;;;16.33;51.28;98703.53;4960255;28;20031;-61
2023/03/14 05:55:27;;;;;;;0.25;0.20;;;;;;;16.35;51.37;98708.75;4977150;28;20039;-61
2023/03/14 05:57:53;;;;;;;0.60;0.30;;;;;;;16.37;52.11;98717.44;4976019;28;20030;-61
2023/03/14 06:00:19;;;;;;;0.40;0.25;;;;;;;16.36;51.25;98714.97;4959390;28;20121;-61
2023/03/14 06:02:44;;;;;;;0.20;0.20;;;;;;;16.39;51.93;98718.03;4959464;28;20114;-61
2023/03/14 06:05:10;;;;;;;0.35;0.30;;;;;;;16.43;50.98;98711.19;4975607;28;20045;-61
2023/03/14 06:07:36;;;;;;;2.70;0.38;;;;;;;16.46;50.77;98710.75;4975151;28;20035;-61
2023/03/14 06:10:01;;;;;;;0.35;0.20;;;;;;;16.49;51.86;98710.31;4977059;28;20493;-61
2023/03/14 06:12:27;;;;;;;1.27;0.43;;;;;;;16.51;51.98;98718.19;4976528;28;20042;-61
2023/03/14 06:14:52;;;;;;;2.30;0.20;;;;;;;16.53;51.29;98716.06;4975307;28;20034;-61
2023/03/14 06:17:17;;;;;;;0.22;0.20;;;;;;;16.48;50.87;98708.63;4959096;28;20039;-61
2023/03/14 06:19:43;;;;;;;0.40;0.20;;;;;;;16.56;51.56;98716.50;4959203;28;20491;-61
2023/03/14 06:22:09;;;;;;;0.65;0.40;;;;;;;16.58;51.41;98714.41;4976420;28;20113;-62
2023/03/14 06:24:34;;;;;;;0.20;0.20;;;;;;;16.58;52.13;98709.00;4959903;28;20027;-62
2023/03/14 06:27:02;;;;;;;0.08;0.00;;;;;;;16.59;51.04;98721.47;4958959;28;20030;-62
2023/03/14 06:29:27;;;;;;;0.40;0.17;;;;;;;16.50;51.65;98701.13;4959020;28;20406;-62
2023/03/14 06:31:53;;;;;;;0.10;0.10;;;;;;;16.53;50.86;98700.72;4974931;28;20034;-62
2023/03/14 06:34:19;;;;;;;0.45;0.25;;;;;;;16.52;51.48;98688.25;4974976;28;20034;-61
2023/03/14 06:36:44;;;;;;;3.53;0.25;;;;;;;16.69;50.37;98713.72;4976516;28;20027;-62
2023/03/14 06:39:09;;;;;;;0.50;0.10;;;;;;;16.75;50.36;98715.53;4958652;28;20558;-62
2023/03/14 06:41:35;;;;;;;0.17;0.15;;;;;;;16.79;51.21;98719.44;4976209;28;20110;-61
2023/03/14 06:44:00;;;;;;;0.90;0.13;;;;;;;16.80;50.93;98721.13;4976002;28;20050;-61
2023/03/14 06:46:25;;;;;;;0.20;0.15;;;;;;;16.75;50.71;98710.13;4958568;28;20062;-61
2023/03/14 06:48:51;;;;;;;0.30;0.10;;;;;;;16.82;51.40;98719.00;4975150;28;20082;-61
2023/03/14 06:51:16;;;;;;;1.77;0.10;;;;;;;16.85;51.33;98720.44;4974335;28;20121;-61
2023/03/14 06:53:42;;;;;;;0.10;0.10;;;;;;;16.88;51.61;98730.81;4974446;28;20443;-61
2023/03/14 06:56:08;;;;;;;0.22;0.22;;;;;;;16.93;50.37;98733.69;4973539;28;20035;-62
2023/03/14 06:58:33;;;;;;;0.30;0.20;;;;;;;16.99;51.30;98722.00;4958679;28;20030;-61
2023/03/14 07:00:58;;;;;;;0.10;0.10;;;;;;;17.08;50.66;98731.47;4975017;28;20081;-62
2023/03/14 07:03:24;;;;;;;0.10;0.08;;;;;;;16.97;50.71;98705.16;4974041;28;20074;-61
2023/03/14 07:05:49;;;;;;;0.20;0.20;;;;;;;17.03;50.70;98703.44;4957334;28;20045;-62
2023/03/14 07:08:15;;;;;;;0.22;0.10;;;;;;;17.11;50.83;98722.94;4990373;28;20030;-61
2023/03/14 07:10:40;;;;;;;1.02;0.30;;;;;;;17.13;51.14;98722.69;4957715;28;20105;-61
2023/03/14 07:13:06;;;;;;;0.20;0.20;;;;;;;17.04;50.49;98707.78;4975984;28;20092;-61
2023/03/14 07:15:31;;;;;;;0.20;0.20;;;;;;;17.27;50.68;98729.63;4960643;28;20474;-61
2023/03/14 07:17:57;;;;;;;0.10;0.10;;;;;;;17.24;50.60;98708.44;4977531;28;20038;-61
2023/03/14 07:20:23;;;;;;;0.30;0.30;;;;;;;17.36;50.43;98739.91;4975067;28;20035;-61
2023/03/14 07:22:51;;;;;;;0.20;0.20;;;;;;;17.37;50.52;98738.88;4958516;28;20049;-61
2023/03/14 07:25:17;;;;;;;0.40;0.32;;;;;;;17.41;51.01;98747.38;4974324;28;20039;-61
2023/03/14 07:27:44;;;;;;;0.40;0.40;;;;;;;17.39;50.25;98741.38;4974885;28;20027;-61
2023/03/14 07:30:10;;;;;;;2.55;0.28;;;;;;;17.53;50.23;98751.03;4973942;28;20055;-61
2023/03/14 07:32:36;;;;;;;0.93;0.50;;;;;;;17.62;50.99;98760.50;4973672;28;20442;-61
2023/03/14 07:35:01;;;;;;;1.02;0.50;;;;;;;17.66;50.02;98764.44;4973824;28;20038;-61
2023/03/14 07:37:27;;;;;;;2.30;0.70;;;;;;;17.75;50.27;98759.56;4989907;28;20042;-61
2023/03/14 07:39:52;;;;;;;1.13;0.60;;;;;;;17.69;50.04;98766.69;4975376;28;20027;-61
2023/03/14 07:42:17;;;;;;;0.95;0.60;;;;;;;17.75;50.33;98773.91;4954159;28;20031;-61
2023/03/14 07:44:43;;;;;;;0.57;0.57;;;;;;;17.77;51.35;98768.25;4938486;28;20050;-61
2023/03/14 07:47:08;;;;;;;4.45;0.57;;;;;;;17.83;51.13;98770.91;4961539;28;20093;-61
2023/03/14 07:49:33;;;;;;;3.13;0.40;;;;;;;17.87;49.90;98780.22;4975206;28;20043;-61
2023/03/14 07:51:59;;;;;;;0.85;0.50;;;;;;;17.87;50.33;98790.22;4958310;28;20041;-61
2023/03/14 07:54:25;;;;;;;0.93;0.60;;;;;;;17.78;51.47;98792.41;4975009;28;20034;-60
2023/03/14 07:56:51;;;;;;;0.75;0.40;;;;;;;17.65;50.98;98792.56;4973645;28;20502;-61
2023/03/14 07:59:17;;;;;;;0.77;0.35;;;;;;;17.61;50.84;98804.06;4973538;28;20055;-61
2023/03/14 08:01:43;;;;;;;0.95;0.45;;;;;;;17.54;51.27;98804.13;4974704;28;20129;-63
2023/03/14 08:04:08;;;;;;;2.67;0.60;;;;;;;17.49;51.08;98817.47;4973232;28;20038;-63
2023/03/14 08:06:35;;;;;;;4.35;0.52;;;;;;;17.56;50.75;98820.16;4956686;28;20518;-63
2023/03/14 08:09:00;;;;;;;1.13;0.45;;;;;;;17.59;51.18;98817.81;4973406;28;20063;-63
2023/03/14 08:11:26;;;;;;;0.25;0.25;;;;;;;17.54;50.90;98819.53;4956931;28;20131;-62
2023/03/14 08:13:52;;;;;;;0.10;0.10;;;;;;;17.59;50.53;98820.53;4973085;28;20057;-62
2023/03/14 08:16:18;;;;;;;0.35;0.03;;;;;;;17.48;51.27;98819.34;4989626;28;20114;-62
2023/03/14 08:18:44;;;;;;;0.15;0.10;;;;;;;17.48;50.97;98865.38;4973034;28;20046;-62
2023/03/14 08:21:09;;;;;;;0.20;0.20;;;;;;;17.39;51.04;98911.91;4973017;28;20035;-64
2023/03/14 08:23:35;;;;;;;0.75;0.22;;;;;;;17.20;51.34;98923.66;4989263;28;20384;-64
2023/03/14 08:26:00;;;;;;;1.55;0.10;;;;;;;16.99;51.06;98932.97;4972887;28;20035;-64
2023/03/14 08:28:30;;;;;;;0.75;0.75;;;;;;;16.87;50.53;98938.22;4973101;28;20121;-63
2023/03/14 08:30:56;;;;;;;0.28;0.28;;;;;;;16.79;50.58;98949.31;4972955;28;20413;-63
2023/03/14 08:33:22;;;;;;;0.25;0.25;;;;;;;16.66;50.45;98949.38;4972745;28;20031;-63
2023/03/14 08:35:47;;;;;;;0.35;0.25;;;;;;;16.67;51.58;98969.94;4972984;28;20041;-62
2023/03/14 08:38:12;;;;;;;0.20;0.20;;;;;;;16.49;51.09;98968.94;4989035;28;20118;-62
2023/03/14 08:40:38;;;;;;;0.30;0.30;;;;;;;16.42;50.82;98985.16;4973234;28;20069;-62
2023/03/14 08:43:03;;;;;;;1.08;0.28;;;;;;;16.41;49.64;98994.31;4972799;28;20118;-62
2023/03/14 08:45:29;;;;;;;0.20;0.20;;;;;;;16.31;50.90;99019.06;4974018;28;20499;-61
2023/03/14 08:47:54;;;;;;;0.10;0.10;;;;;;;16.23;50.23;99030.09;4988891;28;20525;-62
2023/03/14 08:50:19;;;;;;;0.38;0.38;;;;;;;16.09;50.07;99028.44;4974062;28;20089;-62
2023/03/14 08:52:45;;;;;;;0.60;0.32;;;;;;;16.10;50.79;99045.50;4972965;28;20503;-62
2023/03/14 08:55:10;;;;;;;0.20;0.20;;;;;;;16.03;50.06;99052.75;4956349;28;20513;-62
2023/03/14 08:57:36;;;;;;;0.28;0.22;;;;;;;15.99;50.81;99065.03;4972534;28;20042;-62
2023/03/14 09:00:04;;;;;;;1.55;0.20;;;;;;;15.97;50.80;99067.09;4972578;28;20035;-62
2023/03/14 09:02:30;;;;;;;1.45;0.30;;;;;;;15.97;50.92;99077.91;4972557;28;20037;-63
2023/03/14 09:04:55;;;;;;;0.45;0.30;;;;;;;16.00;49.58;99091.81;4989037;28;20030;-63
2023/03/14 09:07:21;;;;;;;0.57;0.30;;;;;;;15.89;50.01;99088.88;4973175;28;20487;-62
2023/03/14 09:09:46;;;;;;;0.55;0.52;;;;;;;15.88;50.56;99111.53;4988781;28;20434;-62
2023/03/14 09:12:12;;;;;;;2.10;0.40;;;;;;;15.87;51.12;99126.06;4972452;28;20034;-61
2023/03/14 09:14:37;;;;;;;1.17;0.20;;;;;;;15.81;50.69;99110.69;4973062;28;20376;-61
2023/03/14 09:17:04;;;;;;;0.65;0.30;;;;;;;15.70;50.99;99121.06;4956285;28;20027;-61
2023/03/14 09:19:29;;;;;;;0.30;0.25;;;;;;;15.82;49.55;99158.25;4974490;28;20038;-61
2023/03/14 09:21:54;;;;;;;0.68;0.20;;;;;;;15.96;50.21;99173.44;4976260;28;20035;-61
2023/03/14 09:24:20;;;;;;;0.03;0.03;;;;;;;16.11;50.17;99165.97;4960056;28;20499;-61
2023/03/14 09:26:45;;;;;;;0.20;0.20;;;;;;;16.12;48.85;99175.75;4976127;28;20069;-61
2023/03/14 09:29:11;;;;;;;0.35;0.20;;;;;;;16.25;49.87;99189.28;4944178;28;20035;-62
2023/03/14 09:31:36;;;;;;;1.40;0.10;;;;;;;16.25;49.83;99189.28;4960294;28;20085;-61
2023/03/14 09:34:01;;;;;;;2.38;0.30;;;;;;;16.29;50.24;99201.34;4975913;28;20039;-61
2023/03/14 09:36:27;;;;;;;0.55;0.30;;;;;;;16.46;49.59;99202.63;4976034;28;20426;-61
2023/03/14 09:38:52;;;;;;;1.17;0.25;;;;;;;16.47;49.21;99219.69;4977149;28;20491;-61
2023/03/14 09:41:24;;;;;;;2.80;0.25;;;;;;;16.46;48.71;99237.78;4977178;28;20073;-61
2023/03/14 09:44:05;;;;;;;0.50;0.30;;;;;;;16.36;49.66;99237.31;4959189;28;20031;-61
2023/03/14 09:46:33;;;;;;;1.08;0.10;;;;;;;16.33;50.02;99247.72;4976072;28;20057;-61
2023/03/14 09:48:59;;;;;;;2.80;0.40;;;;;;;16.39;48.80;99263.13;4975680;28;20043;-61
2023/03/14 09:51:25;;;;;;;3.20;0.38;;;;;;;16.41;49.41;99269.16;4975800;28;20121;-61
2023/03/14 09:53:51;;;;;;;0.30;0.20;;;;;;;16.43;49.31;99275.19;4960004;28;20379;-61
2023/03/14 09:56:24;;;;;;;2.15;0.28;;;;;;;16.42;48.83;99285.16;4943571;28;20035;-61
2023/03/14 09:58:58;;;;;;;0.75;0.30;;;;;;;16.60;48.74;99288.16;4959576;28;20054;-61
2023/03/14 10:01:29;;;;;;;0.85;0.63;;;;;;;16.64;48.44;99302.06;4975855;28;20022;-61
2023/03/14 10:03:57;;;;;;;2.08;0.63;;;;;;;16.79;48.44;99308.97;4959420;28;20507;-60
2023/03/14 10:06:31;;;;;;;2.75;0.20;;;;;;;17.03;47.38;99312.13;4959324;28;20042;-61
2023/03/14 10:08:57;;;;;;;2.72;0.32;;;;;;;17.07;47.63;99291.69;4959290;28;20062;-61
2023/03/14 10:11:24;;;;;;;1.30;0.50;;;;;;;17.35;48.80;99330.19;4959424;28;20506;-61
2023/03/14 10:14:04;;;;;;;0.45;0.45;;;;;;;17.44;47.59;99316.25;4975198;28;20486;-61
2023/03/14 10:16:32;;;;;;;3.10;0.28;;;;;;;17.62;48.41;99342.69;4975210;28;20181;-61
2023/03/14 10:19:05;;;;;;;0.22;0.20;;;;;;;17.61;47.40;99338.34;4959043;28;20384;-61
2023/03/14 10:21:36;;;;;;;0.20;0.20;;;;;;;17.64;47.45;99364.16;4975421;28;20026;-61
2023/03/14 10:24:08;;;;;;;0.30;0.30;;;;;;;17.88;47.28;99374.31;4975397;28;20058;-61
2023/03/14 10:26:34;;;;;;;0.88;0.20;;;;;;;18.15;47.62;99373.19;4991316;28;20033;-61
2023/03/14 10:29:18;;;;;;;3.90;0.60;;;;;;;17.98;47.28;99378.25;4976341;28;20077;-61
2023/03/14 10:32:00;;;;;;;1.55;0.40;;;;;;;18.08;47.76;99395.94;4943311;28;20033;-61
2023/03/14 10:34:29;;;;;;;1.30;0.30;;;;;;;18.25;46.79;99389.03;4976292;28;20499;-61
2023/03/14 10:37:16;;;;;;;3.20;0.40;;;;;;;18.28;46.42;99410.28;4974373;28;20117;-62
2023/03/14 10:39:46;;;;;;;0.50;0.32;;;;;;;18.24;46.20;99414.47;4976223;28;20035;-61
2023/03/14 10:42:34;;;;;;;2.95;0.57;;;;;;;18.17;45.99;99424.50;4958541;28;20041;-61
2023/03/14 10:45:07;;;;;;;0.45;0.40;;;;;;;18.22;46.81;99433.66;4974861;28;20035;-61
2023/03/14 10:47:33;;;;;;;0.30;0.30;;;;;;;18.38;46.57;99443.19;4974985;28;20113;-61
2023/03/14 10:50:23;;;;;;;0.75;0.60;;;;;;;18.41;45.99;99450.91;4958314;28;20154;-61
2023/03/14 10:52:49;;;;;;;2.03;0.57;;;;;;;18.30;46.16;99456.97;4974925;28;20069;-61
2023/03/14 10:55:14;;;;;;;3.33;0.63;;;;;;;18.22;45.72;99454.50;4974921;28;20050;-64
2023/03/14 10:57:41;;;;;;;1.52;0.35;;;;;;;18.22;46.63;99462.63;4974549;28;20046;-61
2023/03/14 11:00:27;;;;;;;3.63;0.98;;;;;;;18.02;46.36;99465.38;4974593;28;20064;-62
2023/03/14 11:03:02;;;;;;;3.65;1.02;;;;;;;17.92;46.58;99522.69;4973538;28;20566;-61
2023/03/14 11:05:42;;;;;;;2.38;0.32;;;;;;;17.56;47.42;99540.41;4974304;28;20056;-62
2023/03/14 11:08:47;;;;;;;0.10;0.10;;;;;;;17.09;47.79;99543.94;4958408;28;20034;-64
2023/03/14 11:11:30;;;;;;;0.10;0.10;;;;;;;16.58;48.18;99560.56;4990455;28;20074;-63
2023/03/14 11:13:58;;;;;;;0.40;0.38;;;;;;;16.44;46.85;99583.13;4974370;28;20029;-65
2023/03/14 11:17:06;;;;;;;0.45;0.20;;;;;;;16.26;47.75;99590.88;4975869;28;20023;-64
2023/03/14 11:19:41;;;;;;;1.27;0.22;;;;;;;16.06;47.90;99595.28;4937943;29;20054;-64
2023/03/14 11:22:17;;;;;;;0.47;0.20;;;;;;;15.99;47.34;99610.59;4953917;29;20040;-63
2023/03/14 11:25:06;;;;;;;1.70;0.22;;;;;;;16.01;47.07;99624.75;4953998;29;20043;-63
2023/03/14 11:27:43;;;;;;;2.58;0.28;;;;;;;15.96;46.67;99627.19;4953441;29;20106;-63
2023/03/14 11:30:18;;;;;;;0.30;0.20;;;;;;;15.98;46.87;99642.16;4921903;29;20039;-62
2023/03/14 11:32:54;;;;;;;0.20;0.20;;;;;;;16.11;48.24;99646.84;4922118;29;20039;-62
2023/03/14 11:35:36;;;;;;;0.45;0.43;;;;;;;16.50;46.13;99641.78;4953676;29;20108;-62